Time;durP1;ratioP1;P1;durP2;ratioP2;P2;SDS_P1;SDS_P2;PMS_P1;PMS_P2;Temp;Humidity;BMP_temperature;BMP_pressure;BME280_temperature;BME280_humidity;BME280_pressure;Samples;Min_cycle;Max_cycle;Signal;HPM_P1;HPM_P2
2021/12/09 00:01:31;;;;;;;;;;;;;;;3.52;70.85;98371.78;4992629;28;19922;-84
2021/12/09 00:03:58;;;;;;;;;;;;;;;3.54;70.96;98357.72;4992739;28;19925;-84
2021/12/09 00:06:26;;;;;;;;;;;;;;;3.58;70.87;98353.22;4989140;28;19917;-84
2021/12/09 00:08:53;;;;;;;;;;;;;;;3.60;70.85;98351.38;4998596;28;19918;-84
2021/12/09 00:11:19;;;;;;;;;;;;;;;3.56;70.79;98352.44;4992694;28;19929;-84
2021/12/09 00:13:44;;;;;;;;;;;;;;;3.60;70.91;98357.47;4991308;28;20258;-84
2021/12/09 00:16:10;;;;;;;;;;;;;;;3.60;70.87;98360.09;4992710;28;20380;-84
2021/12/09 00:18:35;;;;;;;;;;;;;;;3.62;70.83;98354.78;4992663;28;19922;-84
2021/12/09 00:21:01;;;;;;;;;;;;;;;3.63;70.89;98359.97;4991201;28;19922;-84
2021/12/09 00:23:27;;;;;;;;;;;;;;;3.65;70.96;98365.16;4992725;28;19922;-84
2021/12/09 00:25:52;;;;;;;;;;;;;;;3.64;70.90;98369.56;4992531;28;19922;-84
2021/12/09 00:28:18;;;;;;;;;;;;;;;3.67;71.08;98362.47;4992541;28;19967;-84
2021/12/09 00:30:43;;;;;;;;;;;;;;;3.69;71.05;98371.16;4992246;28;19918;-84
2021/12/09 00:33:10;;;;;;;;;;;;;;;3.70;71.12;98371.09;4992596;28;19932;-84
2021/12/09 00:35:44;;;;;;;;;;;;;;;3.70;71.09;98362.38;4991842;28;19980;-84
2021/12/09 00:38:13;;;;;;;;;;;;;;;3.72;70.99;98366.66;4990678;28;19922;-84
2021/12/09 00:40:39;;;;;;;;;;;;;;;3.72;70.98;98371.00;4991898;28;19929;-84
2021/12/09 00:43:04;;;;;;;;;;;;;;;3.74;71.17;98374.44;4992263;28;19918;-85
2021/12/09 00:45:30;;;;;;;;;;;;;;;3.74;71.11;98363.97;4991218;28;19921;-84
2021/12/09 00:47:55;;;;;;;;;;;;;;;3.74;71.01;98364.81;5005835;28;20230;-84
2021/12/09 00:50:21;;;;;;;;;;;;;;;3.77;71.05;98361.25;4992327;28;19973;-84
2021/12/09 00:52:47;;;;;;;;;;;;;;;3.87;71.63;98364.38;4991084;28;19921;-84
2021/12/09 00:55:12;;;;;;;;;;;;;;;4.06;73.16;98362.72;4992489;28;19918;-83
2021/12/09 00:57:38;;;;;;;;;;;;;;;4.17;75.03;98371.03;4992141;28;19977;-84
2021/12/09 01:00:06;;;;;;;;;;;;;;;4.24;76.96;98374.25;4992073;28;19914;-84
2021/12/09 01:02:32;;;;;;;;;;;;;;;4.30;78.59;98378.41;4991531;28;19936;-83
2021/12/09 01:04:57;;;;;;;;;;;;;;;4.30;79.88;98383.66;4992283;28;19922;-83
2021/12/09 01:07:22;;;;;;;;;;;;;;;4.30;81.00;98386.28;4990846;28;20294;-82
2021/12/09 04:16:34;;;;;;;;;;;;;;;3.90;93.69;98501.38;4991568;28;19964;-83
2021/12/09 04:19:00;;;;;;;;;;;;;;;3.86;93.12;98499.78;4991381;28;19969;-83
2021/12/09 04:21:26;;;;;;;;;;;;;;;3.87;92.90;98500.63;4991435;28;19922;-83
2021/12/09 04:23:51;;;;;;;;;;;;;;;3.81;92.57;98494.72;4991328;28;19922;-84
2021/12/09 04:26:17;;;;;;;;;;;;;;;3.72;92.15;98500.28;4991179;28;20399;-84
2021/12/09 04:28:43;;;;;;;;;;;;;;;3.64;91.60;98504.94;4991699;28;19921;-84
2021/12/09 04:31:09;;;;;;;;;;;;;;;3.61;91.01;98499.78;4992491;28;19924;-84
2021/12/09 04:33:34;;;;;;;;;;;;;;;3.59;90.15;98510.31;4992639;28;19926;-84
2021/12/09 04:35:59;;;;;;;;;;;;;;;3.58;89.88;98519.09;4992679;28;20357;-83
2021/12/09 04:38:25;;;;;;;;;;;;;;;3.57;89.30;98529.59;4992479;28;20515;-83
2021/12/09 04:40:51;;;;;;;;;;;;;;;3.45;88.47;98521.25;4992516;28;19925;-83
2021/12/09 04:43:16;;;;;;;;;;;;;;;3.53;87.85;98530.66;4990990;28;19921;-84
2021/12/09 04:45:42;;;;;;;;;;;;;;;3.45;87.25;98536.13;4991634;28;19941;-84
2021/12/09 04:48:07;;;;;;;;;;;;;;;3.33;86.90;98526.06;4992332;28;19929;-84
2021/12/09 04:50:33;;;;;;;;;;;;;;;3.33;86.32;98521.66;4992426;28;20037;-82
2021/12/09 04:52:59;;;;;;;;;;;;;;;3.37;85.74;98530.31;4992488;28;19917;-83
2021/12/09 04:55:24;;;;;;;;;;;;;;;3.30;85.17;98532.25;4992349;28;20344;-83
2021/12/09 04:57:49;;;;;;;;;;;;;;;3.29;84.78;98522.69;4991011;28;19918;-84
2021/12/09 05:00:18;;;;;;;;;;;;;;;3.28;84.76;98523.59;4992292;28;19993;-83
2021/12/09 05:03:01;;;;;;;;;;;;;;;3.56;88.78;98522.69;4992369;28;19964;-83
2021/12/09 05:05:27;;;;;;;;;;;;;;;3.66;92.47;98531.06;4992260;28;20025;-84
2021/12/09 05:07:52;;;;;;;;;;;;;;;3.60;93.81;98534.75;4991017;28;20012;-84
2021/12/09 05:10:18;;;;;;;;;;;;;;;3.55;94.13;98534.91;4990698;28;19960;-84
2021/12/09 05:12:43;;;;;;;;;;;;;;;3.54;94.42;98534.94;4992160;28;19965;-84
2021/12/09 05:15:09;;;;;;;;;;;;;;;3.31;94.62;98539.22;4989755;28;19930;-84
2021/12/09 05:17:34;;;;;;;;;;;;;;;3.42;95.16;98533.63;4991427;28;19922;-84
2021/12/09 05:20:00;;;;;;;;;;;;;;;3.30;94.93;98537.47;4992165;28;19921;-83
2021/12/09 05:22:25;;;;;;;;;;;;;;;3.31;94.88;98539.22;4992078;28;19922;-83
2021/12/09 05:24:52;;;;;;;;;;;;;;;3.25;94.71;98540.25;4994560;28;19960;-83
2021/12/09 05:27:18;;;;;;;;;;;;;;;3.21;94.35;98545.66;4995732;28;19922;-83
2021/12/09 05:29:44;;;;;;;;;;;;;;;3.18;94.01;98544.00;4994566;28;19917;-83
2021/12/09 05:32:12;;;;;;;;;;;;;;;3.12;94.10;98548.56;4995668;28;19917;-83
2021/12/09 05:34:39;;;;;;;;;;;;;;;3.19;93.89;98550.06;4994997;28;19922;-84
2021/12/09 05:37:06;;;;;;;;;;;;;;;3.15;93.31;98553.72;4995580;28;19922;-83
2021/12/09 05:39:31;;;;;;;;;;;;;;;3.10;93.07;98556.47;4995357;28;20297;-83
2021/12/09 05:41:56;;;;;;;;;;;;;;;3.09;92.57;98552.13;4995511;28;19918;-83
2021/12/09 05:44:22;;;;;;;;;;;;;;;3.04;92.63;98557.50;4993973;28;20277;-84
2021/12/09 05:46:50;;;;;;;;;;;;;;;3.07;92.25;98562.66;4995844;28;20369;-83
2021/12/09 09:01:16;;;;;;;;;;;;;;;2.33;79.75;98708.69;5449435;23;20015;-83
2021/12/09 09:03:42;;;;;;;;;;;;;;;2.26;79.67;98707.13;4986928;28;19973;-83
2021/12/09 09:06:07;;;;;;;;;;;;;;;2.27;79.51;98708.00;4986791;28;20287;-82
2021/12/09 09:08:32;;;;;;;;;;;;;;;2.28;79.28;98715.78;4985673;28;19925;-82
2021/12/09 09:10:58;;;;;;;;;;;;;;;2.31;79.16;98707.88;4985371;28;20408;-83
2021/12/09 09:13:23;;;;;;;;;;;;;;;2.30;79.05;98700.91;4984876;28;19926;-82
2021/12/09 09:15:49;;;;;;;;;;;;;;;2.32;78.85;98704.34;4985497;28;19922;-83
2021/12/09 09:18:15;;;;;;;;;;;;;;;2.34;78.46;98702.53;4984351;28;19926;-82
2021/12/09 09:20:40;;;;;;;;;;;;;;;2.36;78.32;98700.75;4986505;28;20435;-83
2021/12/09 09:23:10;;;;;;;;;;;;;;;2.32;78.10;98709.56;4985762;28;19926;-83
2021/12/09 09:25:36;;;;;;;;;;;;;;;2.35;77.85;98713.88;4986495;28;19935;-82
2021/12/09 09:28:01;;;;;;;;;;;;;;;2.36;77.63;98716.44;4985873;28;19948;-82
2021/12/09 09:30:34;;;;;;;;;;;;;;;2.40;77.54;98708.53;4984631;28;19918;-82
2021/12/09 09:33:00;;;;;;;;;;;;;;;2.41;77.73;98713.72;4986238;28;19969;-83
2021/12/09 09:35:25;;;;;;;;;;;;;;;2.44;77.26;98713.63;4986661;28;19930;-83
2021/12/09 09:37:51;;;;;;;;;;;;;;;2.46;77.15;98718.81;4985393;28;19922;-83
2021/12/09 09:40:17;;;;;;;;;;;;;;;2.48;77.25;98717.03;4985847;28;19926;-83
2021/12/09 09:45:14;;;;;;;;;;;;;;;2.44;76.73;98726.72;4984674;28;19929;-83
2021/12/09 09:47:39;;;;;;;;;;;;;;;2.45;76.77;98732.78;4984696;28;19925;-83
2021/12/09 09:50:06;;;;;;;;;;;;;;;2.47;76.61;98728.38;4991955;28;20004;-82
2021/12/09 09:52:31;;;;;;;;;;;;;;;2.48;76.67;98725.72;4984818;28;20448;-82
2021/12/09 09:54:59;;;;;;;;;;;;;;;2.47;76.76;98728.38;4986457;28;19929;-82
2021/12/09 09:57:25;;;;;;;;;;;;;;;2.49;76.56;98729.16;4985819;28;19921;-83
2021/12/09 09:59:50;;;;;;;;;;;;;;;2.53;76.63;98729.06;4983820;28;19933;-83
2021/12/09 10:02:16;;;;;;;;;;;;;;;2.55;76.61;98729.00;4985058;28;19922;-83
2021/12/09 10:04:48;;;;;;;;;;;;;;;2.53;76.32;98734.28;4985399;28;19918;-83
2021/12/09 10:07:14;;;;;;;;;;;;;;;2.51;76.36;98730.84;4985162;28;19918;-83
2021/12/09 10:09:40;;;;;;;;;;;;;;;2.56;76.33;98730.75;4983629;28;19928;-83
2021/12/09 10:12:05;;;;;;;;;;;;;;;2.57;76.23;98731.59;4986614;28;19922;-83
2021/12/09 10:14:33;;;;;;;;;;;;;;;2.57;76.13;98719.38;4985209;28;19926;-83
2021/12/09 10:17:12;;;;;;;;;;;;;;;2.59;75.82;98719.34;4982601;28;19926;-83
2021/12/09 10:19:39;;;;;;;;;;;;;;;2.56;75.65;98722.91;4985286;28;19922;-83
2021/12/09 10:22:04;;;;;;;;;;;;;;;2.62;75.78;98725.34;4983748;28;19922;-83
2021/12/09 10:24:30;;;;;;;;;;;;;;;2.64;75.77;98720.91;4984593;28;19992;-83
2021/12/09 10:26:56;;;;;;;;;;;;;;;2.66;76.42;98708.66;4981755;28;19921;-83
2021/12/09 10:29:33;;;;;;;;;;;;;;;2.63;76.05;98700.91;4983426;28;19932;-83
2021/12/09 10:32:01;;;;;;;;;;;;;;;2.67;75.69;98693.84;4982877;28;20006;-83
2021/12/09 10:36:58;;;;;;;;;;;;;;;2.73;75.78;98696.28;4985409;28;19926;-83
2021/12/09 10:39:35;;;;;;;;;;;;;;;2.70;75.45;98689.38;4984790;28;20022;-83
2021/12/09 10:42:04;;;;;;;;;;;;;;;2.68;75.29;98685.94;4985253;28;20017;-83
2021/12/09 10:44:31;;;;;;;;;;;;;;;2.70;75.27;98689.38;4985604;28;20028;-83
2021/12/09 10:47:06;;;;;;;;;;;;;;;2.75;75.31;98697.09;4981974;28;19929;-83
2021/12/09 10:49:41;;;;;;;;;;;;;;;2.72;75.02;98687.56;4984465;28;20373;-83
2021/12/09 10:52:19;;;;;;;;;;;;;;;2.77;75.07;98689.19;4985077;28;19922;-83
2021/12/09 10:54:44;;;;;;;;;;;;;;;2.80;75.03;98686.50;4983822;28;19921;-83
2021/12/09 10:57:26;;;;;;;;;;;;;;;2.80;74.91;98689.97;4983455;28;19922;-83
2021/12/09 10:59:52;;;;;;;;;;;;;;;2.85;74.97;98700.28;4983752;28;19932;-83
2021/12/09 11:02:18;;;;;;;;;;;;;;;2.84;74.96;98702.06;4984445;28;19922;-83
2021/12/09 11:05:01;;;;;;;;;;;;;;;2.87;75.03;98695.88;4981660;28;20284;-83
2021/12/09 11:07:30;;;;;;;;;;;;;;;2.88;74.98;98695.81;4982481;28;19921;-83
2021/12/09 11:10:16;;;;;;;;;;;;;;;2.91;74.97;98702.72;4980985;28;19930;-83
2021/12/09 11:12:51;;;;;;;;;;;;;;;2.90;74.99;98690.53;5006010;28;19979;-83
2021/12/09 11:15:18;;;;;;;;;;;;;;;2.95;74.82;98688.63;4982968;28;19922;-83
2021/12/09 11:17:47;;;;;;;;;;;;;;;2.95;74.82;98688.63;4983054;28;20397;-82
2021/12/09 11:20:12;;;;;;;;;;;;;;;2.99;74.54;98686.81;4985536;28;20802;-83
2021/12/09 11:22:39;;;;;;;;;;;;;;;3.01;74.61;98693.69;4984295;28;19930;-84
2021/12/09 11:25:06;;;;;;;;;;;;;;;3.14;75.45;98686.34;4983734;28;19926;-84
2021/12/09 11:27:34;;;;;;;;;;;;;;;3.10;75.68;98679.50;4983212;28;20347;-84
2021/12/09 11:30:12;;;;;;;;;;;;;;;3.06;75.28;98676.13;4982851;28;20365;-84
2021/12/09 11:35:12;;;;;;;;;;;;;;;3.07;74.98;98677.81;4983798;28;20004;-84
2021/12/09 11:37:44;;;;;;;;;;;;;;;3.09;74.81;98673.41;4983526;28;20032;-84
2021/12/09 11:40:24;;;;;;;;;;;;;;;3.13;74.65;98675.91;4982313;28;19918;-84
2021/12/09 11:42:58;;;;;;;;;;;;;;;3.15;74.58;98674.13;4983810;28;19926;-83
2021/12/09 11:45:25;;;;;;;;;;;;;;;3.17;74.70;98669.69;4981729;28;20000;-84
2021/12/09 11:47:53;;;;;;;;;;;;;;;3.17;74.57;98667.06;4983767;28;20289;-83
2021/12/09 11:50:20;;;;;;;;;;;;;;;3.17;74.58;98660.06;4983850;28;19932;-83
2021/12/09 11:52:46;;;;;;;;;;;;;;;3.20;74.77;98656.50;4983716;28;19922;-83
2021/12/09 11:55:14;;;;;;;;;;;;;;;3.23;74.70;98662.50;4982373;28;19922;-84
2021/12/09 11:57:43;;;;;;;;;;;;;;;3.25;74.80;98654.59;4983230;28;19922;-84
2021/12/09 12:07:06;;;;;;;;;;;;;;;3.26;74.44;98654.56;4984262;28;20060;-83
2021/12/09 12:12:29;;;;;;;;;;;;;;;3.30;74.45;98644.84;4962567;28;20376;-83
2021/12/09 12:15:00;;;;;;;;;;;;;;;3.32;74.49;98644.78;4983170;28;19940;-84
2021/12/09 12:17:38;;;;;;;;;;;;;;;3.32;74.30;98635.19;4981583;28;19917;-84
2021/12/09 12:20:30;;;;;;;;;;;;;;;3.33;74.30;98630.81;4983696;28;19926;-83
2021/12/09 12:25:45;;;;;;;;;;;;;;;3.35;74.64;98635.09;4983340;28;19977;-83
2021/12/09 12:28:25;;;;;;;;;;;;;;;3.38;74.70;98621.03;4983175;28;19930;-84
2021/12/09 12:37:05;;;;;;;;;;;;;;;3.38;74.42;98613.19;4975353;28;19929;-84
2021/12/09 12:39:46;;;;;;;;;;;;;;;3.37;74.35;98614.94;4981985;28;20492;-83
2021/12/09 12:42:33;;;;;;;;;;;;;;;3.40;74.65;98614.84;4984628;28;19930;-83
2021/12/09 12:45:19;;;;;;;;;;;;;;;3.41;74.74;98608.69;4979332;28;19949;-83
2021/12/09 12:47:53;;;;;;;;;;;;;;;3.43;74.72;98600.78;5005116;28;19930;-83
2021/12/09 12:50:21;;;;;;;;;;;;;;;3.43;74.61;98604.28;4983235;28;19914;-83
2021/12/09 12:52:46;;;;;;;;;;;;;;;3.63;75.86;98610.63;4980565;28;19917;-83
2021/12/09 12:55:13;;;;;;;;;;;;;;;3.81;77.72;98612.63;4983270;28;19928;-83
2021/12/09 12:57:42;;;;;;;;;;;;;;;3.93;79.74;98610.50;4981181;28;19922;-83
2021/12/09 13:00:11;;;;;;;;;;;;;;;3.97;81.60;98615.56;4978271;28;20149;-83
2021/12/09 13:06:09;;;;;;;;;;;;;;;4.00;84.40;98604.09;4982414;28;20316;-83
2021/12/09 13:16:01;;;;;;;;;;;;;;;3.83;88.23;98599.47;4980425;28;20416;-83
2021/12/09 13:18:41;;;;;;;;;;;;;;;3.81;88.95;98596.03;4981194;28;20297;-83
2021/12/09 13:21:25;;;;;;;;;;;;;;;3.77;89.54;98594.44;4982347;28;19922;-84
2021/12/09 13:24:09;;;;;;;;;;;;;;;3.79;90.26;98592.63;4981473;28;19925;-83
2021/12/09 13:26:36;;;;;;;;;;;;;;;3.75;91.08;98585.75;4980757;28;19922;-84
2021/12/09 13:29:19;;;;;;;;;;;;;;;3.81;91.60;98594.28;4981442;28;20122;-83
2021/12/09 13:32:00;;;;;;;;;;;;;;;3.79;93.07;98584.75;4995311;28;19932;-84
2021/12/09 13:34:46;;;;;;;;;;;;;;;3.85;95.68;98587.16;4988638;28;19918;-84
2021/12/09 13:48:21;;;;;;;;;;;;;;;4.59;100.00;98588.91;4986389;28;19929;-83
2021/12/09 13:50:56;;;;;;;;;;;;;;;4.65;100.00;98594.75;4986498;28;19929;-83
2021/12/09 13:56:22;;;;;;;;;;;;;;;4.78;100.00;98595.16;4963967;28;19922;-83
2021/12/09 13:58:48;;;;;;;;;;;;;;;4.78;100.00;98587.28;4981037;28;19976;-83
2021/12/09 14:01:13;;;;;;;;;;;;;;;4.82;100.00;98594.13;4984030;28;19929;-83
2021/12/09 14:03:39;;;;;;;;;;;;;;;4.87;100.00;98592.19;4986671;28;19969;-83
2021/12/09 14:06:12;;;;;;;;;;;;;;;4.93;100.00;98598.09;4985712;28;19968;-83
2021/12/09 14:08:43;;;;;;;;;;;;;;;4.97;100.00;98600.56;4985174;28;20297;-84
2021/12/09 14:11:24;;;;;;;;;;;;;;;4.98;100.00;98598.78;4984629;28;19918;-83
2021/12/09 14:14:00;;;;;;;;;;;;;;;5.01;100.00;98603.91;4987231;28;20009;-84
2021/12/09 14:21:28;;;;;;;;;;;;;;;5.14;100.00;98613.03;4985242;28;20342;-84
2021/12/09 14:24:04;;;;;;;;;;;;;;;5.16;100.00;98611.19;4985407;28;20001;-84
2021/12/09 14:26:29;;;;;;;;;;;;;;;4.98;100.00;98607.53;4984967;28;20432;-83
2021/12/09 14:28:57;;;;;;;;;;;;;;;4.28;100.00;98611.00;4983616;28;19930;-83
2021/12/09 14:31:22;;;;;;;;;;;;;;;3.92;100.00;98609.63;4984277;28;19921;-83
2021/12/09 14:33:48;;;;;;;;;;;;;;;3.77;100.00;98611.00;4985411;28;20008;-84
2021/12/09 14:36:13;;;;;;;;;;;;;;;3.64;100.00;98612.34;5008612;28;20021;-83
2021/12/09 14:38:39;;;;;;;;;;;;;;;3.60;100.00;98608.09;4983550;28;19918;-84
2021/12/09 14:41:26;;;;;;;;;;;;;;;3.53;100.00;98606.59;4985447;28;19917;-83
2021/12/09 14:43:52;;;;;;;;;;;;;;;3.43;98.44;98608.63;4984105;28;19926;-84
2021/12/09 14:46:24;;;;;;;;;;;;;;;3.32;97.41;98609.00;4983141;28;20365;-83
2021/12/09 14:48:49;;;;;;;;;;;;;;;3.39;96.25;98605.28;4990561;28;20487;-84
2021/12/09 14:51:17;;;;;;;;;;;;;;;3.22;95.06;98615.41;4984284;28;19918;-84
2021/12/09 14:53:47;;;;;;;;;;;;;;;3.26;94.30;98609.19;4983864;28;19965;-83
2021/12/09 14:56:23;;;;;;;;;;;;;;;3.11;92.97;98617.53;4983245;28;20384;-83
2021/12/09 14:58:49;;;;;;;;;;;;;;;3.21;92.50;98618.97;4985030;28;20012;-84
2021/12/09 15:01:18;;;;;;;;;;;;;;;3.19;91.63;98615.53;4983731;28;20016;-84
2021/12/09 15:03:56;;;;;;;;;;;;;;;3.18;90.40;98612.06;4983339;28;19922;-84
2021/12/09 15:06:25;;;;;;;;;;;;;;;3.06;90.05;98610.69;4984951;28;20369;-84
2021/12/09 15:08:56;;;;;;;;;;;;;;;3.08;89.39;98611.50;4984495;28;19932;-84
2021/12/09 15:11:22;;;;;;;;;;;;;;;3.03;89.30;98618.63;4984031;28;20378;-84
2021/12/09 15:13:48;;;;;;;;;;;;;;;3.04;88.41;98620.31;5007158;28;20009;-83
2021/12/09 15:16:19;;;;;;;;;;;;;;;2.93;88.38;98621.56;4981795;28;19965;-84
2021/12/09 15:18:44;;;;;;;;;;;;;;;2.90;88.20;98628.63;4981742;28;19918;-83
2021/12/09 15:21:29;;;;;;;;;;;;;;;2.89;87.61;98636.50;4982322;28;19926;-84
2021/12/09 15:24:06;;;;;;;;;;;;;;;2.82;87.74;98635.81;4983861;28;19926;-84
2021/12/09 15:26:33;;;;;;;;;;;;;;;2.87;87.32;98639.19;4983014;28;19941;-83
2021/12/09 15:29:14;;;;;;;;;;;;;;;2.79;86.88;98641.13;4984374;28;19918;-84
2021/12/09 15:31:41;;;;;;;;;;;;;;;2.89;86.78;98644.38;4982466;28;19924;-84
2021/12/09 15:34:10;;;;;;;;;;;;;;;2.77;86.20;98642.94;4983149;28;19929;-83
2021/12/09 15:36:36;;;;;;;;;;;;;;;2.71;86.41;98643.13;4982834;28;19956;-84
2021/12/09 15:39:04;;;;;;;;;;;;;;;2.69;86.16;98639.72;4983592;28;20435;-84
2021/12/09 15:41:31;;;;;;;;;;;;;;;2.64;86.19;98642.44;4984841;28;19925;-84
2021/12/09 15:43:58;;;;;;;;;;;;;;;2.67;86.28;98637.13;4983727;28;19922;-84
2021/12/09 15:46:23;;;;;;;;;;;;;;;2.61;85.78;98642.53;4981881;28;20316;-83
2021/12/09 15:48:49;;;;;;;;;;;;;;;2.64;85.75;98639.00;4983656;28;19977;-84
2021/12/09 15:51:16;;;;;;;;;;;;;;;2.67;85.93;98638.91;4983466;28;19941;-84
2021/12/09 15:53:46;;;;;;;;;;;;;;;2.65;85.28;98635.44;4982142;28;19925;-83
2021/12/09 15:56:13;;;;;;;;;;;;;;;2.60;84.66;98638.22;4984371;28;20007;-84
2021/12/09 15:58:39;;;;;;;;;;;;;;;2.59;84.58;98644.34;4982028;28;19922;-83
2021/12/09 16:01:06;;;;;;;;;;;;;;;2.57;84.26;98640.94;4981331;28;19926;-84
2021/12/09 16:03:32;;;;;;;;;;;;;;;2.53;83.98;98636.69;4984593;28;19922;-84
2021/12/09 16:05:57;;;;;;;;;;;;;;;2.54;84.30;98638.41;4981585;28;19933;-83
2021/12/09 16:08:22;;;;;;;;;;;;;;;2.51;84.02;98635.88;4981402;28;19925;-83
2021/12/09 16:10:49;;;;;;;;;;;;;;;2.45;84.63;98636.88;4980595;28;20020;-84
2021/12/09 16:13:14;;;;;;;;;;;;;;;2.52;84.55;98638.44;5004698;28;19926;-84
2021/12/09 16:18:40;;;;;;;;;;;;;;;2.39;83.87;98639.66;4978247;28;19926;-84
2021/12/09 16:21:09;;;;;;;;;;;;;;;2.40;83.89;98644.00;4983053;28;19944;-83
2021/12/09 16:23:36;;;;;;;;;;;;;;;2.42;83.83;98636.13;4983375;28;19925;-83
2021/12/09 16:26:01;;;;;;;;;;;;;;;2.43;83.74;98637.84;4982029;28;19926;-83
2021/12/09 16:28:27;;;;;;;;;;;;;;;2.41;83.48;98640.50;4983106;28;19929;-83
2021/12/09 16:30:54;;;;;;;;;;;;;;;2.36;83.27;98645.84;4980266;28;19926;-84
2021/12/09 16:33:20;;;;;;;;;;;;;;;2.39;83.62;98641.44;4983256;28;19922;-83
2021/12/09 16:35:46;;;;;;;;;;;;;;;2.40;83.06;98635.31;4981710;28;20008;-83
2021/12/09 16:38:11;;;;;;;;;;;;;;;2.37;83.20;98641.47;4982239;28;19918;-84
2021/12/09 16:40:39;;;;;;;;;;;;;;;2.33;82.91;98632.88;4984426;28;19926;-83
2021/12/09 16:43:05;;;;;;;;;;;;;;;2.32;83.08;98636.38;4983050;28;19929;-84
2021/12/09 16:45:35;;;;;;;;;;;;;;;2.36;82.55;98634.53;4981642;28;19938;-85
2021/12/09 16:48:00;;;;;;;;;;;;;;;2.29;82.68;98636.47;4982311;28;19921;-84
2021/12/09 16:50:28;;;;;;;;;;;;;;;2.29;83.07;98635.59;4984656;28;19926;-83
2021/12/09 16:52:53;;;;;;;;;;;;;;;2.30;83.12;98635.56;4982506;28;19919;-83
2021/12/09 16:55:21;;;;;;;;;;;;;;;2.25;83.04;98634.84;4982621;28;19972;-83
2021/12/09 16:57:50;;;;;;;;;;;;;;;2.23;82.83;98631.41;4982763;28;19922;-83
2021/12/09 17:00:20;;;;;;;;;;;;;;;2.25;82.75;98641.81;4981432;28;19929;-84
2021/12/09 17:02:46;;;;;;;;;;;;;;;2.33;82.88;98637.22;4982615;28;19922;-83
2021/12/09 17:05:12;;;;;;;;;;;;;;;2.27;82.58;98633.03;4981129;28;19922;-84
2021/12/09 17:07:38;;;;;;;;;;;;;;;2.24;82.25;98633.13;4982500;28;19980;-84
2021/12/09 17:10:05;;;;;;;;;;;;;;;2.24;81.98;98632.28;4982262;28;20444;-84
2021/12/09 17:12:31;;;;;;;;;;;;;;;2.21;81.77;98625.34;4982531;28;19964;-84
2021/12/09 17:14:58;;;;;;;;;;;;;;;2.18;81.82;98628.06;4981172;28;20300;-84
2021/12/09 17:17:24;;;;;;;;;;;;;;;2.17;81.64;98621.09;4981129;28;19922;-82
2021/12/09 17:19:52;;;;;;;;;;;;;;;2.21;81.72;98616.66;4982747;28;19932;-84
2021/12/09 17:22:17;;;;;;;;;;;;;;;2.22;81.51;98613.13;4984842;28;19922;-84
2021/12/09 17:24:42;;;;;;;;;;;;;;;2.14;81.52;98605.53;4985210;28;19926;-84
2021/12/09 17:27:07;;;;;;;;;;;;;;;2.21;80.98;98614.06;4985718;28;20377;-83
2021/12/09 17:29:33;;;;;;;;;;;;;;;2.16;81.30;98609.81;4984286;28;19929;-83
2021/12/09 17:31:59;;;;;;;;;;;;;;;2.15;80.92;98610.72;4983184;28;19922;-84
2021/12/09 17:34:25;;;;;;;;;;;;;;;2.44;82.76;98605.56;4986261;28;19921;-83
2021/12/09 17:36:52;;;;;;;;;;;;;;;2.28;82.91;98607.75;4985406;28;19937;-84
2021/12/09 17:39:18;;;;;;;;;;;;;;;2.17;82.76;98610.66;4986030;28;20329;-84
2021/12/09 17:41:46;;;;;;;;;;;;;;;2.15;82.41;98609.84;4987495;28;19928;-84
2021/12/09 17:44:11;;;;;;;;;;;;;;;2.09;82.07;98605.66;4986241;28;19926;-85
2021/12/09 17:46:39;;;;;;;;;;;;;;;2.06;81.96;98597.03;4984821;28;19922;-84
2021/12/09 17:49:05;;;;;;;;;;;;;;;2.03;81.73;98592.75;4984174;28;19914;-84
2021/12/09 17:51:31;;;;;;;;;;;;;;;2.02;81.64;98601.47;4985836;28;20007;-84
2021/12/09 17:53:57;;;;;;;;;;;;;;;2.08;81.38;98600.47;4985647;28;20044;-84
2021/12/09 17:56:26;;;;;;;;;;;;;;;1.97;81.32;98601.59;5008331;28;19922;-85
2021/12/09 17:58:51;;;;;;;;;;;;;;;2.07;81.28;98601.34;4985043;28;20778;-85
2021/12/09 18:01:17;;;;;;;;;;;;;;;2.04;81.27;98601.44;4982949;28;19929;-84
2021/12/09 18:03:43;;;;;;;;;;;;;;;2.01;81.34;98599.78;4985199;28;20363;-83
2021/12/09 18:06:08;;;;;;;;;;;;;;;1.99;81.25;98602.44;4984193;28;19930;-85
2021/12/09 18:08:35;;;;;;;;;;;;;;;2.02;81.21;98598.03;4985771;28;20361;-84
2021/12/09 18:11:01;;;;;;;;;;;;;;;2.00;81.17;98598.91;4983760;28;19973;-84
2021/12/09 18:13:26;;;;;;;;;;;;;;;2.00;81.16;98598.91;4985207;28;20277;-84
2021/12/09 18:15:54;;;;;;;;;;;;;;;2.00;81.21;98593.69;4984448;28;19984;-84
2021/12/09 18:18:20;;;;;;;;;;;;;;;2.06;81.07;98594.41;4985187;28;19972;-84
2021/12/09 18:20:48;;;;;;;;;;;;;;;2.03;81.17;98591.88;5008177;28;19913;-84
2021/12/09 18:23:13;;;;;;;;;;;;;;;2.02;81.14;98591.03;4984729;28;19949;-84
2021/12/09 18:25:38;;;;;;;;;;;;;;;2.00;81.20;98585.00;4985153;28;20353;-86
2021/12/09 18:28:06;;;;;;;;;;;;;;;2.02;80.91;98587.56;4984779;28;19996;-84
2021/12/09 18:30:33;;;;;;;;;;;;;;;2.01;80.87;98591.94;4983287;28;20373;-84
2021/12/09 18:32:59;;;;;;;;;;;;;;;2.02;81.02;98596.25;4984952;28;20402;-84
2021/12/09 18:35:27;;;;;;;;;;;;;;;1.98;81.09;98590.25;4985872;28;20009;-85
2021/12/09 18:37:55;;;;;;;;;;;;;;;1.99;81.11;98591.09;4984144;28;20467;-86
2021/12/09 18:40:21;;;;;;;;;;;;;;;1.99;81.42;98597.22;4984681;28;19926;-84
2021/12/09 18:42:47;;;;;;;;;;;;;;;2.03;81.28;98589.25;4984532;28;19922;-84
2021/12/09 18:45:13;;;;;;;;;;;;;;;2.00;81.16;98588.44;4983679;28;19945;-84
2021/12/09 18:47:38;;;;;;;;;;;;;;;1.98;80.98;98587.66;4984496;28;20044;-84
2021/12/09 18:50:06;;;;;;;;;;;;;;;1.97;80.98;98588.53;4984857;28;20018;-84
2021/12/09 18:52:32;;;;;;;;;;;;;;;1.97;80.87;98587.69;4984422;28;20281;-83
2021/12/09 18:54:57;;;;;;;;;;;;;;;1.96;80.58;98585.97;4984531;28;19922;-85
2021/12/09 18:57:23;;;;;;;;;;;;;;;1.97;80.43;98585.91;4984212;28;19926;-84
2021/12/09 18:59:49;;;;;;;;;;;;;;;2.00;80.35;98585.00;4983742;28;19921;-85
2021/12/09 19:02:15;;;;;;;;;;;;;;;1.98;80.17;98595.50;4982034;28;20501;-84
2021/12/09 19:04:40;;;;;;;;;;;;;;;1.97;80.04;98592.91;4984094;28;19929;-84
2021/12/09 19:07:06;;;;;;;;;;;;;;;1.96;79.75;98593.81;4984607;28;20728;-84
2021/12/09 19:09:31;;;;;;;;;;;;;;;1.96;79.65;98591.19;4984023;28;20423;-84
2021/12/09 19:11:57;;;;;;;;;;;;;;;1.92;79.16;98585.19;4983692;28;19983;-84
2021/12/09 19:14:23;;;;;;;;;;;;;;;1.93;79.20;98586.91;4983937;28;19925;-83
2021/12/09 19:16:53;;;;;;;;;;;;;;;1.95;79.11;98579.88;4981680;28;20396;-84
2021/12/09 19:19:19;;;;;;;;;;;;;;;1.93;79.09;98578.19;4984065;28;20487;-84
2021/12/09 19:21:45;;;;;;;;;;;;;;;1.95;78.89;98589.50;4983975;28;19968;-84
2021/12/09 19:24:11;;;;;;;;;;;;;;;1.96;78.79;98591.19;4983934;28;19964;-83
2021/12/09 19:26:37;;;;;;;;;;;;;;;1.93;78.69;98589.53;4965709;28;20336;-83
2021/12/09 19:29:03;;;;;;;;;;;;;;;1.97;78.56;98595.53;4983667;28;19925;-84
2021/12/09 19:31:29;;;;;;;;;;;;;;;1.96;78.45;98594.69;4982943;28;19918;-84
2021/12/09 19:33:54;;;;;;;;;;;;;;;1.98;78.49;98594.63;4983898;28;19921;-83
2021/12/09 19:36:22;;;;;;;;;;;;;;;1.94;78.28;98595.59;4982157;28;19922;-85
2021/12/09 19:38:49;;;;;;;;;;;;;;;1.93;78.33;98592.16;4983575;28;20271;-85
2021/12/09 19:41:15;;;;;;;;;;;;;;;1.96;78.09;98591.19;4983036;28;19914;-85
2021/12/09 19:43:41;;;;;;;;;;;;;;;1.97;77.91;98592.91;4982282;28;20342;-83
2021/12/09 19:46:07;;;;;;;;;;;;;;;1.98;77.92;98590.25;4981647;28;19918;-84
2021/12/09 19:48:32;;;;;;;;;;;;;;;1.95;77.80;98592.97;4983753;28;20020;-84
2021/12/09 19:51:00;;;;;;;;;;;;;;;1.95;77.84;98581.66;4983071;28;19925;-84
2021/12/09 19:53:25;;;;;;;;;;;;;;;1.97;77.61;98587.69;4983724;28;20269;-85
2021/12/09 19:55:51;;;;;;;;;;;;;;;1.94;77.57;98591.22;4982998;28;19922;-85
2021/12/09 19:58:16;;;;;;;;;;;;;;;1.93;77.68;98584.31;4983214;28;19925;-84
2021/12/09 20:00:41;;;;;;;;;;;;;;;1.95;77.53;98587.72;4982269;28;19940;-85
2021/12/09 20:03:08;;;;;;;;;;;;;;;1.96;77.45;98579.00;4983172;28;20230;-85
2021/12/09 20:05:34;;;;;;;;;;;;;;;2.03;77.37;98584.03;4983193;28;19918;-85
2021/12/09 20:07:59;;;;;;;;;;;;;;;1.98;77.42;98573.75;4982805;28;19940;-84
2021/12/09 20:10:26;;;;;;;;;;;;;;;1.96;77.24;98572.91;4982526;28;20463;-84
2021/12/09 20:12:52;;;;;;;;;;;;;;;1.99;77.23;98571.09;4982148;28;19957;-86
2021/12/09 20:15:18;;;;;;;;;;;;;;;2.04;77.36;98576.16;4981705;28;19918;-84
2021/12/09 20:17:43;;;;;;;;;;;;;;;2.05;77.48;98575.25;4982847;28;20332;-85